createdAt,value
2023-03-28T00:01:27.473Z,87.68
2023-03-28T00:03:57.955Z,87.24
2023-03-28T00:06:32.018Z,87.16
2023-03-28T00:09:02.775Z,86.83
2023-03-28T00:11:33.929Z,86.47
2023-03-28T00:14:04.045Z,86.22
2023-03-28T00:16:37.124Z,86.29
2023-03-28T00:19:13.767Z,86.29
2023-03-28T00:21:47.541Z,85.99
2023-03-28T00:24:21.731Z,85.52
2023-03-28T00:26:55.312Z,85.69
2023-03-28T00:29:26.739Z,85.66
2023-03-28T00:31:58.019Z,85.55
2023-03-28T00:34:28.556Z,85.58
2023-03-28T00:36:58.865Z,85.68
2023-03-28T00:39:31.794Z,85.84
2023-03-28T00:42:03.455Z,85.86
2023-03-28T00:44:56.613Z,85.78
2023-03-28T00:47:32.222Z,85.61
2023-03-28T00:50:07.687Z,85.10
2023-03-28T00:52:45.076Z,85.33
2023-03-28T00:55:19.731Z,85.45
2023-03-28T00:57:51.665Z,85.31
2023-03-28T01:00:22.804Z,84.98
2023-03-28T01:02:58.906Z,85.01
2023-03-28T01:05:32.828Z,84.85
2023-03-28T01:08:17.303Z,84.54
2023-03-28T01:10:47.677Z,84.74
2023-03-28T01:13:22.758Z,84.74
2023-03-28T01:15:52.826Z,84.25
2023-03-28T01:18:23.807Z,83.97
2023-03-28T01:21:55.708Z,83.14
2023-03-28T01:25:08.189Z,83.07
2023-03-28T01:27:46.069Z,82.70
2023-03-28T01:31:01.087Z,82.27
2023-03-28T01:34:13.214Z,82.70
2023-03-28T01:36:58.091Z,82.58
2023-03-28T01:39:38.739Z,82.48
2023-03-28T01:42:41.627Z,82.70
2023-03-28T01:45:46.190Z,82.72
2023-03-28T01:48:39.212Z,82.26
2023-03-28T01:51:22.560Z,82.52
2023-03-28T01:54:18.523Z,82.17
2023-03-28T01:57:03.495Z,82.10
2023-03-28T01:59:51.090Z,82.15
2023-03-28T02:02:59.211Z,82.07
2023-03-28T02:05:37.162Z,82.04
2023-03-28T02:08:11.976Z,82.11
2023-03-28T02:10:55.100Z,82.58
2023-03-28T02:14:02.845Z,82.66
2023-03-28T02:17:01.432Z,82.73
2023-03-28T02:19:59.115Z,82.91
2023-03-28T02:22:57.592Z,83.36
2023-03-28T02:25:48.754Z,83.33
2023-03-28T02:28:54.434Z,83.64
2023-03-28T02:31:40.019Z,83.74
2023-03-28T02:34:11.675Z,83.66
2023-03-28T02:36:58.186Z,83.24
2023-03-28T02:39:44.444Z,83.27
2023-03-28T02:42:35.987Z,82.98
2023-03-28T02:45:44.891Z,83.03
2023-03-28T02:48:21.105Z,82.84
2023-03-28T02:51:19.489Z,82.49
2023-03-28T02:54:13.681Z,82.62
2023-03-28T02:56:44.743Z,82.36
2023-03-28T02:59:39.319Z,82.19
2023-03-28T03:02:09.225Z,82.03
2023-03-28T03:04:39.912Z,82.20
2023-03-28T03:07:11.934Z,82.09
2023-03-28T03:09:45.731Z,82.08
2023-03-28T03:12:15.759Z,81.94
2023-03-28T03:14:45.941Z,82.11
2023-03-28T03:17:38.974Z,82.27
2023-03-28T03:20:09.898Z,82.18
2023-03-28T03:22:41.830Z,82.49
2023-03-28T03:25:14.496Z,82.42
2023-03-28T03:27:54.969Z,82.09
2023-03-28T03:30:25.007Z,82.61
2023-03-28T03:33:17.340Z,82.20
2023-03-28T03:35:50.541Z,82.18
2023-03-28T03:38:21.456Z,82.12
2023-03-28T03:40:52.204Z,82.05
2023-03-28T03:43:22.313Z,82.24
2023-03-28T03:45:54.495Z,82.48
2023-03-28T03:48:26.341Z,82.01
2023-03-28T03:51:00.012Z,82.28
2023-03-28T03:53:30.783Z,81.71
2023-03-28T03:56:27.935Z,81.37
2023-03-28T03:59:05.035Z,80.61
2023-03-28T04:01:39.715Z,80.04
2023-03-28T04:04:41.883Z,78.81
2023-03-28T04:07:44.125Z,78.36
2023-03-28T04:10:25.961Z,78.04
2023-03-28T04:12:56.742Z,77.66
2023-03-28T04:15:28.171Z,77.85
2023-03-28T04:18:18.179Z,77.68
2023-03-28T04:20:57.504Z,76.89
2023-03-28T04:23:50.162Z,77.01
2023-03-28T04:26:38.327Z,76.43
2023-03-28T04:29:11.072Z,75.91
2023-03-28T04:31:42.132Z,76.40
2023-03-28T04:34:31.598Z,76.58
2023-03-28T04:37:09.497Z,76.47
2023-03-28T04:39:54.471Z,76.50
2023-03-28T04:42:37.487Z,76.29
2023-03-28T04:45:22.036Z,75.96
2023-03-28T04:47:52.353Z,75.80
2023-03-28T04:50:25.546Z,75.94
2023-03-28T04:52:58.386Z,75.85
2023-03-28T04:55:29.077Z,75.50
2023-03-28T04:57:59.709Z,75.43
2023-03-28T05:00:29.823Z,75.43
2023-03-28T05:03:20.941Z,75.62
2023-03-28T05:06:00.390Z,75.53
2023-03-28T05:08:33.430Z,75.71
2023-03-28T05:11:06.878Z,75.67
2023-03-28T05:13:39.145Z,75.35
2023-03-28T05:16:29.038Z,75.53
2023-03-28T05:19:19.100Z,75.18
2023-03-28T05:22:11.446Z,75.34
2023-03-28T05:24:44.100Z,75.03
2023-03-28T05:27:22.406Z,75.23
2023-03-28T05:29:51.841Z,75.25
2023-03-28T05:32:23.973Z,74.95
2023-03-28T05:34:55.478Z,73.48
2023-03-28T05:37:25.430Z,73.51
2023-03-28T05:39:58.682Z,73.22
2023-03-28T05:42:29.925Z,73.49
2023-03-28T05:45:00.349Z,73.99
2023-03-28T05:47:45.640Z,74.52
2023-03-28T05:50:16.664Z,73.82
2023-03-28T05:52:50.885Z,73.61
2023-03-28T05:55:20.881Z,73.05
2023-03-28T05:57:50.701Z,71.93
2023-03-28T06:00:25.079Z,71.14
2023-03-28T06:02:56.038Z,71.13
2023-03-28T06:05:34.988Z,69.59
2023-03-28T06:08:07.048Z,68.03
2023-03-28T06:10:37.487Z,66.45
2023-03-28T06:13:32.260Z,65.81
2023-03-28T06:16:10.397Z,64.65
2023-03-28T06:18:40.912Z,63.46
2023-03-28T06:21:11.858Z,62.87
2023-03-28T06:23:47.058Z,62.54
2023-03-28T06:26:28.577Z,62.34
2023-03-28T06:28:58.188Z,61.20
2023-03-28T06:31:47.799Z,61.10
2023-03-28T06:34:19.262Z,61.43
2023-03-28T06:37:08.182Z,60.67
2023-03-28T06:40:02.375Z,60.59
2023-03-28T06:42:34.232Z,59.91
2023-03-28T06:45:28.212Z,58.26
2023-03-28T06:48:11.780Z,57.91
2023-03-28T06:51:02.590Z,58.40
2023-03-28T06:53:33.483Z,57.66
2023-03-28T06:56:03.419Z,56.39
2023-03-28T06:58:33.737Z,56.36
2023-03-28T07:01:10.242Z,57.33
2023-03-28T07:04:01.398Z,56.35
2023-03-28T07:06:36.321Z,55.77
2023-03-28T07:09:08.761Z,54.88
2023-03-28T07:11:44.462Z,55.32
2023-03-28T07:14:14.163Z,55.46
2023-03-28T07:16:44.410Z,55.09
2023-03-28T07:19:14.925Z,55.03
2023-03-28T07:21:49.756Z,55.79
2023-03-28T07:24:24.376Z,54.70
2023-03-28T07:27:17.154Z,55.20
2023-03-28T07:29:49.819Z,54.50
2023-03-28T07:32:20.972Z,53.41
2023-03-28T07:34:50.769Z,53.42
2023-03-28T07:37:28.995Z,53.23
2023-03-28T07:40:22.248Z,53.02
2023-03-28T07:42:54.896Z,52.12
2023-03-28T07:45:24.845Z,51.73
2023-03-28T07:47:55.944Z,52.56
2023-03-28T07:50:26.729Z,51.82
2023-03-28T07:52:59.819Z,52.16
2023-03-28T07:58:12.410Z,49.79
2023-03-28T08:00:45.886Z,50.09
2023-03-28T08:03:38.226Z,48.75
2023-03-28T08:06:24.227Z,49.08
2023-03-28T08:08:59.827Z,48.34
2023-03-28T08:11:56.556Z,48.32
2023-03-28T08:14:34.459Z,46.90
2023-03-28T08:17:05.212Z,46.88
2023-03-28T08:19:37.493Z,47.11
2023-03-28T08:22:17.705Z,45.91
2023-03-28T08:24:53.481Z,45.50
2023-03-28T08:27:25.129Z,45.56
2023-03-28T08:30:00.227Z,43.67
2023-03-28T08:32:33.292Z,43.40
2023-03-28T08:35:05.693Z,44.43
2023-03-28T08:37:36.072Z,45.16
2023-03-28T08:40:11.425Z,44.04
2023-03-28T08:42:54.126Z,44.52
2023-03-28T08:45:40.318Z,43.76
2023-03-28T08:48:38.425Z,43.12
2023-03-28T08:51:22.129Z,43.33
2023-03-28T08:54:16.418Z,42.35
2023-03-28T08:56:51.815Z,42.06
2023-03-28T08:59:50.659Z,41.55
2023-03-28T09:02:27.486Z,40.88
2023-03-28T09:05:11.913Z,40.26
2023-03-28T09:08:00.546Z,39.67
2023-03-28T09:10:44.686Z,40.13
2023-03-28T09:13:51.403Z,40.24
2023-03-28T09:16:43.228Z,40.41
2023-03-28T09:19:44.526Z,40.32
2023-03-28T09:22:34.845Z,39.03
2023-03-28T09:25:09.884Z,38.51
2023-03-28T09:28:05.095Z,38.95
2023-03-28T09:30:44.792Z,38.07
2023-03-28T09:33:19.677Z,37.32
2023-03-28T09:35:52.284Z,37.42
2023-03-28T09:38:36.805Z,37.37
2023-03-28T09:41:14.694Z,38.55
2023-03-28T09:44:21.175Z,38.24
2023-03-28T09:47:15.474Z,36.49
2023-03-28T09:50:11.685Z,36.74
2023-03-28T09:52:49.086Z,37.38
2023-03-28T09:55:24.064Z,35.61
2023-03-28T09:58:07.200Z,34.68
2023-03-28T10:00:57.290Z,34.44
2023-03-28T10:03:57.147Z,34.96
2023-03-28T10:06:48.796Z,35.17
2023-03-28T10:09:27.599Z,35.60
2023-03-28T10:12:11.133Z,34.38
2023-03-28T10:14:43.874Z,35.26
2023-03-28T10:17:30.619Z,35.56
2023-03-28T10:20:23.147Z,35.12
2023-03-28T10:23:03.310Z,34.67
2023-03-28T10:25:38.060Z,35.14
2023-03-28T10:28:15.955Z,34.26
2023-03-28T10:31:01.911Z,33.21
2023-03-28T10:33:46.765Z,33.87
2023-03-28T10:36:45.247Z,33.49
2023-03-28T10:39:29.577Z,33.57
2023-03-28T10:42:14.629Z,33.12
2023-03-28T10:45:07.037Z,32.94
2023-03-28T10:47:42.637Z,32.87
2023-03-28T10:50:37.211Z,32.32
2023-03-28T10:53:54.546Z,33.09
2023-03-28T10:56:39.021Z,32.27
2023-03-28T10:59:41.675Z,31.61
2023-03-28T11:02:26.794Z,32.48
2023-03-28T11:05:01.034Z,32.54
2023-03-28T11:07:46.307Z,30.06
2023-03-28T11:11:00.101Z,30.15
2023-03-28T11:14:05.224Z,29.93
2023-03-28T11:16:34.942Z,29.93
2023-03-28T11:19:32.972Z,29.83
2023-03-28T11:22:08.473Z,29.68
2023-03-28T11:25:00.751Z,29.63
2023-03-28T11:28:48.399Z,29.19
2023-03-28T11:31:38.551Z,29.87
2023-03-28T11:34:32.518Z,30.21
2023-03-28T11:37:18.584Z,29.10
2023-03-28T11:40:07.218Z,30.62
2023-03-28T11:43:12.289Z,30.68
2023-03-28T11:45:56.347Z,31.94
2023-03-28T11:48:38.274Z,32.76
2023-03-28T11:51:23.702Z,32.47
2023-03-28T11:54:37.242Z,32.47
2023-03-28T11:57:31.969Z,33.64
2023-03-28T12:00:23.108Z,33.08
2023-03-28T12:03:31.903Z,31.12
2023-03-28T12:06:11.133Z,31.25
2023-03-28T12:08:59.041Z,30.91
2023-03-28T12:11:43.812Z,31.37
2023-03-28T12:14:16.496Z,31.95
2023-03-28T12:16:54.104Z,31.42
2023-03-28T12:19:40.179Z,30.76
2023-03-28T12:22:29.972Z,31.25
2023-03-28T12:25:12.078Z,33.23
2023-03-28T12:27:47.826Z,34.67
2023-03-28T12:30:46.012Z,35.01
2023-03-28T12:33:34.344Z,34.67
2023-03-28T12:36:35.383Z,34.20
2023-03-28T12:39:18.049Z,37.39
2023-03-28T12:41:53.957Z,40.31
2023-03-28T12:44:31.601Z,41.89
2023-03-28T12:47:10.594Z,41.40
2023-03-28T12:49:44.780Z,39.30
2023-03-28T12:52:32.952Z,39.30
2023-03-28T12:55:12.271Z,39.30
2023-03-28T12:57:50.094Z,36.96
2023-03-28T13:01:14.850Z,36.38
2023-03-28T13:04:32.662Z,35.61
2023-03-28T13:07:42.065Z,34.55
2023-03-28T13:10:31.502Z,33.35
2023-03-28T13:13:37.300Z,33.29
2023-03-28T13:16:43.766Z,31.84
2023-03-28T13:19:18.969Z,31.67
2023-03-28T13:22:29.295Z,31.70
2023-03-28T13:25:21.606Z,31.15
2023-03-28T13:28:15.777Z,31.41
2023-03-28T13:31:20.564Z,32.16
2023-03-28T13:34:02.439Z,35.24
2023-03-28T13:36:35.846Z,36.23
2023-03-28T13:39:19.568Z,36.80
2023-03-28T13:41:49.476Z,37.39
2023-03-28T13:44:30.553Z,37.60
2023-03-28T13:47:04.163Z,37.83
2023-03-28T13:49:51.691Z,38.62
2023-03-28T13:52:25.537Z,40.29
2023-03-28T13:55:05.355Z,41.69
2023-03-28T13:57:35.259Z,41.71
2023-03-28T14:00:07.720Z,42.69
2023-03-28T14:02:50.543Z,45.26
2023-03-28T14:05:27.415Z,44.72
2023-03-28T14:08:16.998Z,43.72
2023-03-28T14:10:48.204Z,43.61
2023-03-28T14:13:36.763Z,43.37
2023-03-28T14:16:10.309Z,44.34
2023-03-28T14:18:49.647Z,45.44
2023-03-28T14:21:24.610Z,46.23
2023-03-28T14:24:06.768Z,47.96
2023-03-28T14:26:38.188Z,49.87
2023-03-28T14:29:12.345Z,51.78
2023-03-28T14:31:46.944Z,53.51
2023-03-28T14:34:25.350Z,54.88
2023-03-28T14:37:01.290Z,55.26
2023-03-28T14:39:34.799Z,54.72
2023-03-28T14:42:08.862Z,54.13
2023-03-28T14:44:59.747Z,52.68
2023-03-28T14:47:35.860Z,51.37
2023-03-28T14:50:09.531Z,50.35
2023-03-28T14:52:42.191Z,49.40
2023-03-28T14:55:24.486Z,48.62
2023-03-28T14:57:56.107Z,48.20
2023-03-28T15:00:36.484Z,48.56
2023-03-28T15:03:19.560Z,49.36
2023-03-28T15:05:52.370Z,49.57
2023-03-28T15:08:39.327Z,49.80
2023-03-28T15:11:44.066Z,50.47
2023-03-28T15:14:30.794Z,51.12
2023-03-28T15:17:01.607Z,52.21
2023-03-28T15:19:40.641Z,53.55
2023-03-28T15:22:38.314Z,53.52
2023-03-28T15:25:14.237Z,53.75
2023-03-28T15:27:59.328Z,54.03
2023-03-28T15:30:47.476Z,54.41
2023-03-28T15:33:26.394Z,54.32
2023-03-28T15:36:23.243Z,54.19
2023-03-28T15:39:19.684Z,53.90
2023-03-28T15:41:53.164Z,53.67
2023-03-28T15:44:35.053Z,53.13
2023-03-28T15:47:13.905Z,52.95
2023-03-28T15:49:43.762Z,52.59
2023-03-28T15:52:20.737Z,52.87
2023-03-28T15:55:18.943Z,53.38
2023-03-28T16:00:56.017Z,53.16
2023-03-28T16:03:35.174Z,54.13
2023-03-28T16:06:30.640Z,54.60
2023-03-28T16:09:32.950Z,55.69
2023-03-28T16:12:16.051Z,57.08
2023-03-28T16:14:51.857Z,57.34
2023-03-28T16:17:43.930Z,58.93
2023-03-28T16:20:26.359Z,59.83
2023-03-28T16:23:02.137Z,60.35
2023-03-28T16:25:32.921Z,61.42
2023-03-28T16:28:02.934Z,63.78
2023-03-28T16:30:38.612Z,65.46
2023-03-28T16:33:09.726Z,66.42
2023-03-28T16:35:40.717Z,67.39
2023-03-28T16:38:12.221Z,67.52
2023-03-28T16:40:45.762Z,68.46
2023-03-28T16:43:17.082Z,68.30
2023-03-28T16:48:38.593Z,71.59
2023-03-28T16:51:08.713Z,73.65
2023-03-28T16:53:40.634Z,77.31
2023-03-28T16:56:15.513Z,77.40
2023-03-28T16:58:49.856Z,76.42
2023-03-28T17:01:20.874Z,76.23
2023-03-28T17:03:53.960Z,75.99
2023-03-28T17:06:24.283Z,76.69
2023-03-28T17:08:54.839Z,76.99
2023-03-28T17:11:24.683Z,78.12
2023-03-28T17:13:55.672Z,79.53
2023-03-28T17:16:27.873Z,80.33
2023-03-28T17:18:57.751Z,79.54
2023-03-28T17:21:28.464Z,80.13
2023-03-28T17:23:58.783Z,80.71
2023-03-28T17:26:30.563Z,81.63
2023-03-28T17:29:00.252Z,81.65
2023-03-28T17:31:32.125Z,81.18
2023-03-28T17:34:01.726Z,81.28
2023-03-28T17:36:35.214Z,81.26
2023-03-28T17:39:04.972Z,81.07
2023-03-28T17:41:34.776Z,81.60
2023-03-28T17:44:11.972Z,82.01
2023-03-28T17:46:48.469Z,81.91
2023-03-28T17:49:20.073Z,82.64
2023-03-28T17:51:51.498Z,82.53
2023-03-28T17:54:21.279Z,82.55
2023-03-28T17:56:51.023Z,82.11
2023-03-28T17:59:22.386Z,81.87
2023-03-28T18:01:55.478Z,81.85
2023-03-28T18:04:25.650Z,81.46
2023-03-28T18:07:15.767Z,81.83
2023-03-28T18:09:53.310Z,81.56
2023-03-28T18:12:24.639Z,80.80
2023-03-28T18:15:00.965Z,79.90
2023-03-28T18:17:31.452Z,79.69
2023-03-28T18:20:02.239Z,79.42
2023-03-28T18:22:32.631Z,79.12
2023-03-28T18:25:04.005Z,78.79
2023-03-28T18:27:35.310Z,77.67
2023-03-28T18:30:08.832Z,76.87
2023-03-28T18:32:38.780Z,76.51
2023-03-28T18:35:13.614Z,76.13
2023-03-28T18:37:43.961Z,75.88
2023-03-28T18:40:15.703Z,75.84
2023-03-28T18:42:46.366Z,75.43
2023-03-28T18:45:21.746Z,75.09
2023-03-28T18:47:52.149Z,74.94
2023-03-28T18:50:23.933Z,74.61
2023-03-28T18:52:58.615Z,74.69
2023-03-28T18:55:28.125Z,74.50
2023-03-28T18:58:00.541Z,74.45
2023-03-28T19:00:30.662Z,74.36
2023-03-28T19:03:00.889Z,74.20
2023-03-28T19:05:34.607Z,73.86
2023-03-28T19:08:05.964Z,73.52
2023-03-28T19:10:36.106Z,73.43
2023-03-28T19:13:05.933Z,73.02
2023-03-28T19:15:37.464Z,72.66
2023-03-28T19:18:07.704Z,72.18
2023-03-28T19:20:38.792Z,72.01
2023-03-28T19:23:10.920Z,71.48
2023-03-28T19:25:43.016Z,71.02
2023-03-28T19:28:14.771Z,70.88
2023-03-28T19:30:45.243Z,70.77
2023-03-28T19:33:18.695Z,70.76
2023-03-28T19:35:49.281Z,70.82
2023-03-28T19:38:20.283Z,70.43
2023-03-28T19:40:58.337Z,70.25
2023-03-28T19:43:29.915Z,70.09
2023-03-28T19:46:07.270Z,69.97
2023-03-28T19:48:37.459Z,69.73
2023-03-28T19:51:08.233Z,69.50
2023-03-28T19:53:38.973Z,69.04
2023-03-28T19:56:11.799Z,68.75
2023-03-28T19:58:42.187Z,68.51
2023-03-28T20:01:13.987Z,68.19
2023-03-28T20:03:43.452Z,68.04
2023-03-28T20:06:14.261Z,67.88
2023-03-28T20:08:45.230Z,67.97
2023-03-28T20:11:15.665Z,67.65
2023-03-28T20:13:46.187Z,67.35
2023-03-28T20:16:16.243Z,67.22
2023-03-28T20:18:47.334Z,66.86
2023-03-28T20:21:17.375Z,66.60
2023-03-28T20:23:46.565Z,66.23
2023-03-28T20:26:19.591Z,66.61
2023-03-28T20:28:52.241Z,66.12
2023-03-28T20:31:24.507Z,65.95
2023-03-28T20:33:57.579Z,65.98
2023-03-28T20:36:27.705Z,65.84
2023-03-28T20:39:05.619Z,65.72
2023-03-28T20:41:39.636Z,65.73
2023-03-28T20:44:17.315Z,65.93
2023-03-28T20:46:49.579Z,66.17
2023-03-28T20:49:22.174Z,65.96
2023-03-28T20:51:59.995Z,65.99
2023-03-28T20:54:36.146Z,66.14
2023-03-28T20:57:05.662Z,66.09
2023-03-28T20:59:35.525Z,66.23
2023-03-28T21:02:05.886Z,66.27
2023-03-28T21:04:35.508Z,66.58
2023-03-28T21:07:13.374Z,66.34
2023-03-28T21:09:46.163Z,66.20
2023-03-28T21:12:19.755Z,65.95
2023-03-28T21:14:54.348Z,65.39
2023-03-28T21:17:29.577Z,65.54
2023-03-28T21:19:59.976Z,65.43
2023-03-28T21:22:31.764Z,65.42
2023-03-28T21:25:02.668Z,65.44
2023-03-28T21:27:43.454Z,65.20
2023-03-28T21:30:14.562Z,65.19
2023-03-28T21:32:44.737Z,65.55
2023-03-28T21:35:22.081Z,65.63
2023-03-28T21:38:00.693Z,65.91
2023-03-28T21:40:29.891Z,65.95
2023-03-28T21:42:59.710Z,65.94
2023-03-28T21:45:29.826Z,65.98
2023-03-28T21:47:59.592Z,65.70
2023-03-28T21:50:31.826Z,65.07
2023-03-28T21:53:01.329Z,64.80
2023-03-28T21:55:32.744Z,64.60
2023-03-28T21:58:03.981Z,64.85
2023-03-28T22:00:33.221Z,64.77
2023-03-28T22:03:06.547Z,64.70
2023-03-28T22:05:43.098Z,64.52
2023-03-28T22:08:14.447Z,64.72
2023-03-28T22:10:53.214Z,64.67
2023-03-28T22:13:24.646Z,64.69
2023-03-28T22:15:59.977Z,64.53
2023-03-28T22:18:31.105Z,64.63
2023-03-28T22:21:08.217Z,64.65
2023-03-28T22:23:56.127Z,64.74
2023-03-28T22:26:27.885Z,65.03
2023-03-28T22:29:00.980Z,64.92
2023-03-28T22:31:31.111Z,65.15
2023-03-28T22:34:02.629Z,65.16
2023-03-28T22:36:34.265Z,65.10
2023-03-28T22:39:05.646Z,65.36
2023-03-28T22:41:35.366Z,65.48
2023-03-28T22:44:07.357Z,65.88
2023-03-28T22:46:41.464Z,65.77
2023-03-28T22:49:13.696Z,65.84
2023-03-28T22:51:46.473Z,66.46
2023-03-28T22:54:23.928Z,66.66
2023-03-28T22:56:54.191Z,66.93
2023-03-28T22:59:52.185Z,67.09
2023-03-28T23:02:24.709Z,67.02
2023-03-28T23:04:55.435Z,66.89
2023-03-28T23:07:24.678Z,66.91
2023-03-28T23:09:54.692Z,66.96
2023-03-28T23:12:25.123Z,66.92
2023-03-28T23:14:55.725Z,66.56
2023-03-28T23:17:26.710Z,66.63
2023-03-28T23:19:56.106Z,66.70
2023-03-28T23:22:25.806Z,66.85
2023-03-28T23:24:55.743Z,66.85
2023-03-28T23:27:25.414Z,66.78
2023-03-28T23:29:55.764Z,66.62
2023-03-28T23:32:25.664Z,66.46
2023-03-28T23:34:55.344Z,66.57
2023-03-28T23:37:28.994Z,66.16
2023-03-28T23:39:59.541Z,66.13
2023-03-28T23:42:30.872Z,65.87
2023-03-28T23:45:02.061Z,65.78
2023-03-28T23:47:32.929Z,65.96
2023-03-28T23:50:05.315Z,65.74
2023-03-28T23:52:34.692Z,65.42
2023-03-28T23:55:04.276Z,65.40
2023-03-28T23:57:35.580Z,65.14
